sensor_id;sensor_type;location;lat;lon;timestamp;P1;durP1;ratioP1;P2;durP2;ratioP2
13607;SDS011;6875;50.852;5.672;2024-02-21T00:00:18;18.30;;;8.83;;
13607;SDS011;6875;50.852;5.672;2024-02-21T00:02:45;18.77;;;8.80;;
13607;SDS011;6875;50.852;5.672;2024-02-21T00:05:12;12.37;;;7.73;;
13607;SDS011;6875;50.852;5.672;2024-02-21T00:07:38;16.43;;;8.03;;
13607;SDS011;6875;50.852;5.672;2024-02-21T00:10:07;15.03;;;7.83;;
13607;SDS011;6875;50.852;5.672;2024-02-21T00:12:34;14.33;;;7.33;;
13607;SDS011;6875;50.852;5.672;2024-02-21T00:15:01;18.40;;;8.00;;
13607;SDS011;6875;50.852;5.672;2024-02-21T00:17:28;15.13;;;7.80;;
13607;SDS011;6875;50.852;5.672;2024-02-21T00:19:54;16.83;;;6.43;;
13607;SDS011;6875;50.852;5.672;2024-02-21T00:22:21;16.47;;;6.33;;
13607;SDS011;6875;50.852;5.672;2024-02-21T00:24:47;15.03;;;6.67;;
13607;SDS011;6875;50.852;5.672;2024-02-21T00:27:15;11.40;;;6.27;;
13607;SDS011;6875;50.852;5.672;2024-02-21T00:29:42;11.20;;;5.90;;
13607;SDS011;6875;50.852;5.672;2024-02-21T00:32:08;11.80;;;5.57;;
13607;SDS011;6875;50.852;5.672;2024-02-21T00:34:35;10.77;;;6.07;;
13607;SDS011;6875;50.852;5.672;2024-02-21T00:37:01;8.83;;;5.97;;
13607;SDS011;6875;50.852;5.672;2024-02-21T00:39:28;10.53;;;6.40;;
13607;SDS011;6875;50.852;5.672;2024-02-21T00:41:55;15.87;;;6.97;;
13607;SDS011;6875;50.852;5.672;2024-02-21T00:44:23;14.27;;;7.23;;
13607;SDS011;6875;50.852;5.672;2024-02-21T00:46:49;14.10;;;7.33;;
13607;SDS011;6875;50.852;5.672;2024-02-21T00:49:17;12.97;;;7.53;;
13607;SDS011;6875;50.852;5.672;2024-02-21T00:51:44;18.03;;;9.30;;
13607;SDS011;6875;50.852;5.672;2024-02-21T00:54:11;17.70;;;8.73;;
13607;SDS011;6875;50.852;5.672;2024-02-21T00:56:37;16.30;;;9.60;;
13607;SDS011;6875;50.852;5.672;2024-02-21T00:59:04;13.07;;;8.83;;
13607;SDS011;6875;50.852;5.672;2024-02-21T01:01:32;19.20;;;9.37;;
13607;SDS011;6875;50.852;5.672;2024-02-21T01:03:59;15.70;;;9.37;;
13607;SDS011;6875;50.852;5.672;2024-02-21T01:06:25;21.27;;;10.33;;
13607;SDS011;6875;50.852;5.672;2024-02-21T01:08:52;17.67;;;9.40;;
13607;SDS011;6875;50.852;5.672;2024-02-21T01:11:19;19.17;;;9.67;;
13607;SDS011;6875;50.852;5.672;2024-02-21T01:13:45;19.60;;;9.53;;
13607;SDS011;6875;50.852;5.672;2024-02-21T01:16:12;20.70;;;9.10;;
13607;SDS011;6875;50.852;5.672;2024-02-21T01:18:40;19.70;;;10.17;;
13607;SDS011;6875;50.852;5.672;2024-02-21T01:21:07;20.20;;;10.00;;
13607;SDS011;6875;50.852;5.672;2024-02-21T01:23:35;16.30;;;9.23;;
13607;SDS011;6875;50.852;5.672;2024-02-21T01:26:01;22.27;;;9.93;;
13607;SDS011;6875;50.852;5.672;2024-02-21T01:28:28;26.43;;;10.40;;
13607;SDS011;6875;50.852;5.672;2024-02-21T01:30:55;19.53;;;10.53;;
13607;SDS011;6875;50.852;5.672;2024-02-21T01:33:22;22.90;;;10.13;;
13607;SDS011;6875;50.852;5.672;2024-02-21T01:35:50;18.20;;;10.27;;
13607;SDS011;6875;50.852;5.672;2024-02-21T01:38:17;24.80;;;10.87;;
13607;SDS011;6875;50.852;5.672;2024-02-21T01:40:43;19.60;;;10.30;;
13607;SDS011;6875;50.852;5.672;2024-02-21T01:43:16;19.47;;;10.43;;
13607;SDS011;6875;50.852;5.672;2024-02-21T01:45:45;17.23;;;10.03;;
13607;SDS011;6875;50.852;5.672;2024-02-21T01:48:14;22.80;;;10.27;;
13607;SDS011;6875;50.852;5.672;2024-02-21T01:50:41;22.83;;;9.73;;
13607;SDS011;6875;50.852;5.672;2024-02-21T01:53:09;20.20;;;9.93;;
13607;SDS011;6875;50.852;5.672;2024-02-21T01:55:42;21.10;;;10.30;;
13607;SDS011;6875;50.852;5.672;2024-02-21T01:58:09;19.23;;;9.83;;
13607;SDS011;6875;50.852;5.672;2024-02-21T02:00:36;17.97;;;10.00;;
13607;SDS011;6875;50.852;5.672;2024-02-21T02:03:03;18.63;;;9.90;;
13607;SDS011;6875;50.852;5.672;2024-02-21T02:05:31;21.93;;;9.83;;
13607;SDS011;6875;50.852;5.672;2024-02-21T02:07:59;18.67;;;9.97;;
13607;SDS011;6875;50.852;5.672;2024-02-21T02:10:26;21.07;;;9.53;;
13607;SDS011;6875;50.852;5.672;2024-02-21T02:12:53;16.97;;;9.10;;
13607;SDS011;6875;50.852;5.672;2024-02-21T02:15:20;20.30;;;9.13;;
13607;SDS011;6875;50.852;5.672;2024-02-21T02:17:46;19.33;;;9.20;;
13607;SDS011;6875;50.852;5.672;2024-02-21T02:20:13;22.83;;;9.27;;
13607;SDS011;6875;50.852;5.672;2024-02-21T02:22:40;19.37;;;8.10;;
13607;SDS011;6875;50.852;5.672;2024-02-21T02:25:10;16.77;;;8.33;;
13607;SDS011;6875;50.852;5.672;2024-02-21T02:27:41;15.50;;;8.20;;
13607;SDS011;6875;50.852;5.672;2024-02-21T02:30:09;17.73;;;8.60;;
13607;SDS011;6875;50.852;5.672;2024-02-21T02:32:36;18.80;;;8.20;;
13607;SDS011;6875;50.852;5.672;2024-02-21T02:35:04;15.67;;;7.90;;
13607;SDS011;6875;50.852;5.672;2024-02-21T02:37:31;15.30;;;7.37;;
13607;SDS011;6875;50.852;5.672;2024-02-21T02:39:57;20.30;;;8.07;;
13607;SDS011;6875;50.852;5.672;2024-02-21T02:42:25;15.53;;;7.87;;
13607;SDS011;6875;50.852;5.672;2024-02-21T02:44:52;15.50;;;7.53;;
13607;SDS011;6875;50.852;5.672;2024-02-21T02:47:19;18.53;;;7.10;;
13607;SDS011;6875;50.852;5.672;2024-02-21T02:49:48;16.87;;;6.83;;
13607;SDS011;6875;50.852;5.672;2024-02-21T02:52:16;13.93;;;7.00;;
13607;SDS011;6875;50.852;5.672;2024-02-21T02:54:42;13.83;;;7.00;;
13607;SDS011;6875;50.852;5.672;2024-02-21T02:57:09;22.20;;;7.40;;
13607;SDS011;6875;50.852;5.672;2024-02-21T02:59:37;15.90;;;6.27;;
13607;SDS011;6875;50.852;5.672;2024-02-21T03:02:04;11.97;;;6.23;;
13607;SDS011;6875;50.852;5.672;2024-02-21T03:04:30;15.00;;;6.83;;
13607;SDS011;6875;50.852;5.672;2024-02-21T03:06:57;14.70;;;6.37;;
13607;SDS011;6875;50.852;5.672;2024-02-21T03:09:23;15.63;;;6.67;;
13607;SDS011;6875;50.852;5.672;2024-02-21T03:11:50;14.27;;;6.90;;
13607;SDS011;6875;50.852;5.672;2024-02-21T03:14:17;12.97;;;6.20;;
13607;SDS011;6875;50.852;5.672;2024-02-21T03:16:45;17.37;;;7.50;;
13607;SDS011;6875;50.852;5.672;2024-02-21T03:19:12;11.97;;;6.17;;
13607;SDS011;6875;50.852;5.672;2024-02-21T03:21:39;9.83;;;5.87;;
13607;SDS011;6875;50.852;5.672;2024-02-21T03:24:05;11.33;;;6.33;;
13607;SDS011;6875;50.852;5.672;2024-02-21T03:26:32;9.80;;;6.13;;
13607;SDS011;6875;50.852;5.672;2024-02-21T03:28:59;9.50;;;6.30;;
13607;SDS011;6875;50.852;5.672;2024-02-21T03:31:25;10.67;;;5.57;;
13607;SDS011;6875;50.852;5.672;2024-02-21T03:33:54;15.30;;;6.20;;
13607;SDS011;6875;50.852;5.672;2024-02-21T03:36:20;12.07;;;6.13;;
13607;SDS011;6875;50.852;5.672;2024-02-21T03:38:47;12.97;;;6.17;;
13607;SDS011;6875;50.852;5.672;2024-02-21T03:41:14;9.57;;;6.23;;
13607;SDS011;6875;50.852;5.672;2024-02-21T03:43:40;15.47;;;6.23;;
13607;SDS011;6875;50.852;5.672;2024-02-21T03:46:07;13.67;;;6.00;;
13607;SDS011;6875;50.852;5.672;2024-02-21T03:48:34;12.77;;;6.53;;
13607;SDS011;6875;50.852;5.672;2024-02-21T03:51:03;13.30;;;7.10;;
13607;SDS011;6875;50.852;5.672;2024-02-21T03:53:30;14.37;;;6.70;;
13607;SDS011;6875;50.852;5.672;2024-02-21T03:55:57;11.20;;;6.60;;
13607;SDS011;6875;50.852;5.672;2024-02-21T03:58:27;13.87;;;6.93;;
13607;SDS011;6875;50.852;5.672;2024-02-21T04:00:54;11.53;;;7.07;;
13607;SDS011;6875;50.852;5.672;2024-02-21T04:03:21;16.70;;;6.90;;
13607;SDS011;6875;50.852;5.672;2024-02-21T04:05:47;13.43;;;7.00;;
13607;SDS011;6875;50.852;5.672;2024-02-21T04:08:15;18.40;;;7.00;;
13607;SDS011;6875;50.852;5.672;2024-02-21T04:10:42;16.47;;;7.80;;
13607;SDS011;6875;50.852;5.672;2024-02-21T04:13:09;10.30;;;6.87;;
13607;SDS011;6875;50.852;5.672;2024-02-21T04:15:35;18.60;;;7.70;;
13607;SDS011;6875;50.852;5.672;2024-02-21T04:18:02;14.73;;;7.73;;
13607;SDS011;6875;50.852;5.672;2024-02-21T04:20:29;13.93;;;7.87;;
13607;SDS011;6875;50.852;5.672;2024-02-21T04:22:55;17.40;;;8.57;;
13607;SDS011;6875;50.852;5.672;2024-02-21T04:25:24;18.17;;;9.03;;
13607;SDS011;6875;50.852;5.672;2024-02-21T04:27:51;15.50;;;7.97;;
13607;SDS011;6875;50.852;5.672;2024-02-21T04:30:18;18.07;;;8.80;;
13607;SDS011;6875;50.852;5.672;2024-02-21T04:32:44;17.10;;;9.77;;
13607;SDS011;6875;50.852;5.672;2024-02-21T04:35:11;16.70;;;9.03;;
13607;SDS011;6875;50.852;5.672;2024-02-21T04:37:37;14.77;;;8.87;;
13607;SDS011;6875;50.852;5.672;2024-02-21T04:40:05;17.80;;;9.33;;
13607;SDS011;6875;50.852;5.672;2024-02-21T04:42:33;23.30;;;9.70;;
13607;SDS011;6875;50.852;5.672;2024-02-21T04:45:00;18.87;;;9.93;;
13607;SDS011;6875;50.852;5.672;2024-02-21T04:47:27;18.87;;;9.33;;
13607;SDS011;6875;50.852;5.672;2024-02-21T04:49:53;17.87;;;9.47;;
13607;SDS011;6875;50.852;5.672;2024-02-21T04:52:20;20.03;;;9.17;;
13607;SDS011;6875;50.852;5.672;2024-02-21T04:54:47;24.87;;;11.20;;
13607;SDS011;6875;50.852;5.672;2024-02-21T04:57:15;20.53;;;10.83;;
13607;SDS011;6875;50.852;5.672;2024-02-21T04:59:44;19.57;;;10.80;;
13607;SDS011;6875;50.852;5.672;2024-02-21T05:02:12;18.27;;;10.07;;
13607;SDS011;6875;50.852;5.672;2024-02-21T05:04:39;22.93;;;11.67;;
13607;SDS011;6875;50.852;5.672;2024-02-21T05:07:06;28.30;;;11.53;;
13607;SDS011;6875;50.852;5.672;2024-02-21T05:09:33;18.07;;;10.60;;
13607;SDS011;6875;50.852;5.672;2024-02-21T05:12:00;18.57;;;9.77;;
13607;SDS011;6875;50.852;5.672;2024-02-21T05:14:27;23.40;;;11.60;;
13607;SDS011;6875;50.852;5.672;2024-02-21T05:16:55;18.57;;;10.80;;
13607;SDS011;6875;50.852;5.672;2024-02-21T05:19:21;22.37;;;11.13;;
13607;SDS011;6875;50.852;5.672;2024-02-21T05:21:48;22.40;;;10.17;;
13607;SDS011;6875;50.852;5.672;2024-02-21T05:24:15;19.10;;;10.30;;
13607;SDS011;6875;50.852;5.672;2024-02-21T05:26:41;22.33;;;10.37;;
13607;SDS011;6875;50.852;5.672;2024-02-21T05:29:08;18.43;;;10.37;;
13607;SDS011;6875;50.852;5.672;2024-02-21T05:31:42;20.00;;;10.67;;
13607;SDS011;6875;50.852;5.672;2024-02-21T05:34:22;15.70;;;9.53;;
13607;SDS011;6875;50.852;5.672;2024-02-21T05:36:48;17.80;;;9.17;;
13607;SDS011;6875;50.852;5.672;2024-02-21T05:39:15;21.07;;;10.00;;
13607;SDS011;6875;50.852;5.672;2024-02-21T05:41:43;23.03;;;10.03;;
13607;SDS011;6875;50.852;5.672;2024-02-21T05:44:10;18.63;;;9.77;;
13607;SDS011;6875;50.852;5.672;2024-02-21T05:46:36;19.73;;;9.57;;
13607;SDS011;6875;50.852;5.672;2024-02-21T05:49:04;16.13;;;8.93;;
13607;SDS011;6875;50.852;5.672;2024-02-21T05:51:32;17.63;;;9.77;;
13607;SDS011;6875;50.852;5.672;2024-02-21T05:53:59;14.73;;;7.50;;
13607;SDS011;6875;50.852;5.672;2024-02-21T05:56:26;16.23;;;8.67;;
13607;SDS011;6875;50.852;5.672;2024-02-21T05:58:53;17.50;;;9.20;;
13607;SDS011;6875;50.852;5.672;2024-02-21T06:01:20;15.27;;;8.17;;
13607;SDS011;6875;50.852;5.672;2024-02-21T06:03:47;13.83;;;7.77;;
13607;SDS011;6875;50.852;5.672;2024-02-21T06:06:15;18.03;;;8.37;;
13607;SDS011;6875;50.852;5.672;2024-02-21T06:08:42;16.90;;;8.90;;
13607;SDS011;6875;50.852;5.672;2024-02-21T06:11:09;17.23;;;8.63;;
13607;SDS011;6875;50.852;5.672;2024-02-21T06:13:37;17.67;;;7.63;;
13607;SDS011;6875;50.852;5.672;2024-02-21T06:16:05;17.00;;;7.80;;
13607;SDS011;6875;50.852;5.672;2024-02-21T06:18:33;16.70;;;8.30;;
13607;SDS011;6875;50.852;5.672;2024-02-21T06:21:04;15.47;;;7.70;;
13607;SDS011;6875;50.852;5.672;2024-02-21T06:23:32;12.87;;;7.83;;
13607;SDS011;6875;50.852;5.672;2024-02-21T06:25:59;13.57;;;8.00;;
13607;SDS011;6875;50.852;5.672;2024-02-21T06:28:25;14.50;;;7.97;;
13607;SDS011;6875;50.852;5.672;2024-02-21T06:30:52;16.33;;;8.20;;
13607;SDS011;6875;50.852;5.672;2024-02-21T06:33:19;15.63;;;7.73;;
13607;SDS011;6875;50.852;5.672;2024-02-21T06:35:49;14.27;;;8.10;;
13607;SDS011;6875;50.852;5.672;2024-02-21T06:38:18;14.20;;;8.13;;
13607;SDS011;6875;50.852;5.672;2024-02-21T06:40:46;16.67;;;7.73;;
13607;SDS011;6875;50.852;5.672;2024-02-21T06:43:16;13.60;;;7.77;;
13607;SDS011;6875;50.852;5.672;2024-02-21T06:45:44;16.00;;;7.90;;
13607;SDS011;6875;50.852;5.672;2024-02-21T06:48:15;17.17;;;8.57;;
13607;SDS011;6875;50.852;5.672;2024-02-21T06:50:42;14.30;;;7.50;;
13607;SDS011;6875;50.852;5.672;2024-02-21T06:53:08;18.50;;;8.00;;
13607;SDS011;6875;50.852;5.672;2024-02-21T06:55:35;15.87;;;8.63;;
13607;SDS011;6875;50.852;5.672;2024-02-21T06:58:03;17.63;;;8.90;;
13607;SDS011;6875;50.852;5.672;2024-02-21T07:00:30;18.10;;;9.07;;
13607;SDS011;6875;50.852;5.672;2024-02-21T07:02:57;17.80;;;8.63;;
13607;SDS011;6875;50.852;5.672;2024-02-21T07:05:23;20.43;;;9.67;;
13607;SDS011;6875;50.852;5.672;2024-02-21T07:07:50;18.53;;;9.77;;
13607;SDS011;6875;50.852;5.672;2024-02-21T07:10:16;23.47;;;9.13;;
13607;SDS011;6875;50.852;5.672;2024-02-21T07:12:44;14.30;;;8.60;;
13607;SDS011;6875;50.852;5.672;2024-02-21T07:15:12;14.73;;;8.23;;
13607;SDS011;6875;50.852;5.672;2024-02-21T07:17:38;22.97;;;9.27;;
13607;SDS011;6875;50.852;5.672;2024-02-21T07:20:06;20.40;;;9.10;;
13607;SDS011;6875;50.852;5.672;2024-02-21T07:22:34;15.90;;;8.97;;
13607;SDS011;6875;50.852;5.672;2024-02-21T07:25:00;15.97;;;8.57;;
13607;SDS011;6875;50.852;5.672;2024-02-21T07:27:27;16.33;;;8.17;;
13607;SDS011;6875;50.852;5.672;2024-02-21T07:29:56;11.63;;;8.00;;
13607;SDS011;6875;50.852;5.672;2024-02-21T07:32:24;14.70;;;7.97;;
13607;SDS011;6875;50.852;5.672;2024-02-21T07:34:50;15.03;;;8.80;;
13607;SDS011;6875;50.852;5.672;2024-02-21T07:37:17;18.50;;;9.00;;
13607;SDS011;6875;50.852;5.672;2024-02-21T07:39:44;26.47;;;8.67;;
13607;SDS011;6875;50.852;5.672;2024-02-21T07:42:10;12.53;;;8.03;;
13607;SDS011;6875;50.852;5.672;2024-02-21T07:44:37;16.07;;;8.13;;
13607;SDS011;6875;50.852;5.672;2024-02-21T07:47:03;15.27;;;7.83;;
13607;SDS011;6875;50.852;5.672;2024-02-21T07:49:33;14.53;;;8.33;;
13607;SDS011;6875;50.852;5.672;2024-02-21T07:52:07;15.10;;;8.47;;
13607;SDS011;6875;50.852;5.672;2024-02-21T07:54:33;14.03;;;8.53;;
13607;SDS011;6875;50.852;5.672;2024-02-21T07:57:00;16.70;;;8.37;;
13607;SDS011;6875;50.852;5.672;2024-02-21T07:59:27;13.70;;;8.47;;
13607;SDS011;6875;50.852;5.672;2024-02-21T08:01:56;17.50;;;8.13;;
13607;SDS011;6875;50.852;5.672;2024-02-21T08:04:22;14.10;;;8.07;;
13607;SDS011;6875;50.852;5.672;2024-02-21T08:06:52;18.13;;;10.13;;
13607;SDS011;6875;50.852;5.672;2024-02-21T08:09:20;31.37;;;13.17;;
13607;SDS011;6875;50.852;5.672;2024-02-21T08:11:47;17.57;;;9.00;;
13607;SDS011;6875;50.852;5.672;2024-02-21T08:14:15;12.37;;;8.67;;
13607;SDS011;6875;50.852;5.672;2024-02-21T08:16:42;13.50;;;8.17;;
13607;SDS011;6875;50.852;5.672;2024-02-21T08:19:08;13.93;;;7.60;;
13607;SDS011;6875;50.852;5.672;2024-02-21T08:21:35;17.40;;;8.27;;
13607;SDS011;6875;50.852;5.672;2024-02-21T08:24:03;12.10;;;7.53;;
13607;SDS011;6875;50.852;5.672;2024-02-21T08:26:30;14.20;;;8.10;;
13607;SDS011;6875;50.852;5.672;2024-02-21T08:28:57;19.83;;;8.57;;
13607;SDS011;6875;50.852;5.672;2024-02-21T08:31:25;15.23;;;7.80;;
13607;SDS011;6875;50.852;5.672;2024-02-21T08:33:56;15.53;;;8.07;;
13607;SDS011;6875;50.852;5.672;2024-02-21T08:36:27;16.77;;;7.97;;
13607;SDS011;6875;50.852;5.672;2024-02-21T08:38:54;13.00;;;7.23;;
13607;SDS011;6875;50.852;5.672;2024-02-21T08:41:22;14.93;;;7.80;;
13607;SDS011;6875;50.852;5.672;2024-02-21T08:43:49;12.73;;;8.33;;
13607;SDS011;6875;50.852;5.672;2024-02-21T08:46:16;12.80;;;8.03;;
13607;SDS011;6875;50.852;5.672;2024-02-21T08:48:42;16.93;;;8.07;;
13607;SDS011;6875;50.852;5.672;2024-02-21T08:51:10;13.97;;;7.93;;
13607;SDS011;6875;50.852;5.672;2024-02-21T08:53:40;14.47;;;7.77;;
13607;SDS011;6875;50.852;5.672;2024-02-21T08:56:07;10.37;;;7.27;;
13607;SDS011;6875;50.852;5.672;2024-02-21T08:58:36;11.70;;;6.70;;
13607;SDS011;6875;50.852;5.672;2024-02-21T09:01:03;15.77;;;7.17;;
13607;SDS011;6875;50.852;5.672;2024-02-21T09:03:31;11.20;;;6.67;;
13607;SDS011;6875;50.852;5.672;2024-02-21T09:05:58;10.83;;;6.90;;
13607;SDS011;6875;50.852;5.672;2024-02-21T09:08:24;15.17;;;7.43;;
13607;SDS011;6875;50.852;5.672;2024-02-21T09:10:51;12.10;;;7.03;;
13607;SDS011;6875;50.852;5.672;2024-02-21T09:13:18;9.97;;;6.37;;
13607;SDS011;6875;50.852;5.672;2024-02-21T09:15:46;13.07;;;6.13;;
13607;SDS011;6875;50.852;5.672;2024-02-21T09:18:13;12.50;;;6.57;;
13607;SDS011;6875;50.852;5.672;2024-02-21T09:20:39;7.97;;;5.60;;
13607;SDS011;6875;50.852;5.672;2024-02-21T09:23:06;11.10;;;6.50;;
13607;SDS011;6875;50.852;5.672;2024-02-21T09:25:33;14.23;;;7.00;;
13607;SDS011;6875;50.852;5.672;2024-02-21T09:28:00;10.03;;;6.20;;
13607;SDS011;6875;50.852;5.672;2024-02-21T09:30:27;7.63;;;5.83;;
13607;SDS011;6875;50.852;5.672;2024-02-21T09:32:56;10.87;;;6.07;;
13607;SDS011;6875;50.852;5.672;2024-02-21T09:35:24;9.87;;;5.90;;
13607;SDS011;6875;50.852;5.672;2024-02-21T09:37:51;7.40;;;5.43;;
13607;SDS011;6875;50.852;5.672;2024-02-21T09:40:18;8.20;;;6.13;;
13607;SDS011;6875;50.852;5.672;2024-02-21T09:42:45;8.17;;;5.43;;
13607;SDS011;6875;50.852;5.672;2024-02-21T09:45:14;13.40;;;6.03;;
13607;SDS011;6875;50.852;5.672;2024-02-21T09:47:50;12.67;;;5.27;;
13607;SDS011;6875;50.852;5.672;2024-02-21T09:50:35;7.13;;;5.47;;
13607;SDS011;6875;50.852;5.672;2024-02-21T09:53:02;6.57;;;5.17;;
13607;SDS011;6875;50.852;5.672;2024-02-21T09:55:31;9.97;;;6.17;;
13607;SDS011;6875;50.852;5.672;2024-02-21T09:58:00;6.77;;;5.47;;
13607;SDS011;6875;50.852;5.672;2024-02-21T10:00:28;9.57;;;6.10;;
13607;SDS011;6875;50.852;5.672;2024-02-21T10:02:55;8.20;;;6.03;;
13607;SDS011;6875;50.852;5.672;2024-02-21T10:05:23;14.30;;;6.33;;
13607;SDS011;6875;50.852;5.672;2024-02-21T10:07:50;9.90;;;6.30;;
13607;SDS011;6875;50.852;5.672;2024-02-21T10:10:18;8.40;;;6.73;;
13607;SDS011;6875;50.852;5.672;2024-02-21T10:12:49;9.27;;;6.67;;
13607;SDS011;6875;50.852;5.672;2024-02-21T10:15:19;9.80;;;6.20;;
13607;SDS011;6875;50.852;5.672;2024-02-21T10:17:46;10.17;;;6.60;;
13607;SDS011;6875;50.852;5.672;2024-02-21T10:20:13;11.40;;;7.03;;
13607;SDS011;6875;50.852;5.672;2024-02-21T10:22:42;10.23;;;6.77;;
13607;SDS011;6875;50.852;5.672;2024-02-21T10:25:09;9.50;;;7.30;;
13607;SDS011;6875;50.852;5.672;2024-02-21T10:27:36;12.70;;;7.67;;
13607;SDS011;6875;50.852;5.672;2024-02-21T10:30:03;9.23;;;7.80;;
13607;SDS011;6875;50.852;5.672;2024-02-21T10:32:31;12.37;;;7.93;;
13607;SDS011;6875;50.852;5.672;2024-02-21T10:35:01;14.30;;;8.43;;
13607;SDS011;6875;50.852;5.672;2024-02-21T10:37:29;11.63;;;8.23;;
13607;SDS011;6875;50.852;5.672;2024-02-21T10:39:57;12.87;;;8.37;;
13607;SDS011;6875;50.852;5.672;2024-02-21T10:42:26;12.03;;;8.50;;
13607;SDS011;6875;50.852;5.672;2024-02-21T10:44:55;13.43;;;8.27;;
13607;SDS011;6875;50.852;5.672;2024-02-21T10:47:29;11.10;;;8.50;;
13607;SDS011;6875;50.852;5.672;2024-02-21T10:50:02;13.37;;;8.47;;
13607;SDS011;6875;50.852;5.672;2024-02-21T10:52:31;9.60;;;7.43;;
13607;SDS011;6875;50.852;5.672;2024-02-21T10:55:07;9.93;;;7.17;;
13607;SDS011;6875;50.852;5.672;2024-02-21T10:57:36;12.47;;;6.70;;
13607;SDS011;6875;50.852;5.672;2024-02-21T11:00:04;10.20;;;6.93;;
13607;SDS011;6875;50.852;5.672;2024-02-21T11:02:35;12.77;;;7.07;;
13607;SDS011;6875;50.852;5.672;2024-02-21T11:05:02;11.47;;;6.43;;
13607;SDS011;6875;50.852;5.672;2024-02-21T11:07:29;12.60;;;6.30;;
13607;SDS011;6875;50.852;5.672;2024-02-21T11:09:58;11.87;;;6.33;;
13607;SDS011;6875;50.852;5.672;2024-02-21T11:12:26;11.20;;;6.60;;
13607;SDS011;6875;50.852;5.672;2024-02-21T11:15:03;9.10;;;6.07;;
13607;SDS011;6875;50.852;5.672;2024-02-21T11:17:30;11.83;;;6.27;;
13607;SDS011;6875;50.852;5.672;2024-02-21T11:19:57;10.13;;;5.73;;
13607;SDS011;6875;50.852;5.672;2024-02-21T11:22:24;10.00;;;5.90;;
13607;SDS011;6875;50.852;5.672;2024-02-21T11:24:54;10.40;;;6.07;;
13607;SDS011;6875;50.852;5.672;2024-02-21T11:27:22;8.80;;;5.20;;
13607;SDS011;6875;50.852;5.672;2024-02-21T11:29:55;11.57;;;6.07;;
13607;SDS011;6875;50.852;5.672;2024-02-21T11:32:23;7.80;;;5.57;;
13607;SDS011;6875;50.852;5.672;2024-02-21T11:34:53;9.37;;;5.50;;
13607;SDS011;6875;50.852;5.672;2024-02-21T11:37:20;9.73;;;5.40;;
13607;SDS011;6875;50.852;5.672;2024-02-21T11:39:47;10.47;;;6.03;;
13607;SDS011;6875;50.852;5.672;2024-02-21T11:42:14;9.93;;;5.37;;
13607;SDS011;6875;50.852;5.672;2024-02-21T11:44:40;9.87;;;5.20;;
13607;SDS011;6875;50.852;5.672;2024-02-21T11:47:09;7.70;;;4.83;;
13607;SDS011;6875;50.852;5.672;2024-02-21T11:49:36;9.03;;;5.33;;
13607;SDS011;6875;50.852;5.672;2024-02-21T11:52:04;10.07;;;5.33;;
13607;SDS011;6875;50.852;5.672;2024-02-21T11:54:32;9.37;;;5.37;;
13607;SDS011;6875;50.852;5.672;2024-02-21T11:56:59;7.80;;;5.03;;
13607;SDS011;6875;50.852;5.672;2024-02-21T11:59:26;8.13;;;4.67;;
13607;SDS011;6875;50.852;5.672;2024-02-21T12:01:53;9.17;;;4.53;;
13607;SDS011;6875;50.852;5.672;2024-02-21T12:04:21;6.37;;;4.00;;
13607;SDS011;6875;50.852;5.672;2024-02-21T12:06:49;7.87;;;4.47;;
13607;SDS011;6875;50.852;5.672;2024-02-21T12:09:15;8.77;;;4.23;;
13607;SDS011;6875;50.852;5.672;2024-02-21T12:11:42;11.23;;;4.23;;
13607;SDS011;6875;50.852;5.672;2024-02-21T12:14:09;8.63;;;3.67;;
13607;SDS011;6875;50.852;5.672;2024-02-21T12:16:36;7.60;;;3.90;;
13607;SDS011;6875;50.852;5.672;2024-02-21T12:19:03;11.40;;;4.27;;
13607;SDS011;6875;50.852;5.672;2024-02-21T12:21:31;6.27;;;3.80;;
13607;SDS011;6875;50.852;5.672;2024-02-21T12:24:10;5.57;;;3.87;;
13607;SDS011;6875;50.852;5.672;2024-02-21T12:26:37;8.00;;;4.10;;
13607;SDS011;6875;50.852;5.672;2024-02-21T12:29:04;7.43;;;4.47;;
13607;SDS011;6875;50.852;5.672;2024-02-21T12:31:31;7.23;;;4.07;;
13607;SDS011;6875;50.852;5.672;2024-02-21T12:33:57;6.37;;;4.07;;
13607;SDS011;6875;50.852;5.672;2024-02-21T12:36:24;5.60;;;3.57;;
13607;SDS011;6875;50.852;5.672;2024-02-21T12:38:52;6.00;;;3.93;;
13607;SDS011;6875;50.852;5.672;2024-02-21T12:41:19;10.77;;;4.00;;
13607;SDS011;6875;50.852;5.672;2024-02-21T12:43:46;8.03;;;3.80;;
13607;SDS011;6875;50.852;5.672;2024-02-21T12:46:13;5.13;;;3.43;;
13607;SDS011;6875;50.852;5.672;2024-02-21T12:48:39;8.73;;;4.23;;
13607;SDS011;6875;50.852;5.672;2024-02-21T12:51:06;8.23;;;4.20;;
13607;SDS011;6875;50.852;5.672;2024-02-21T12:53:33;8.40;;;4.10;;
13607;SDS011;6875;50.852;5.672;2024-02-21T12:56:01;8.97;;;3.87;;
13607;SDS011;6875;50.852;5.672;2024-02-21T12:58:30;7.90;;;3.80;;
13607;SDS011;6875;50.852;5.672;2024-02-21T13:00:56;8.23;;;3.60;;
13607;SDS011;6875;50.852;5.672;2024-02-21T13:03:23;10.87;;;4.27;;
13607;SDS011;6875;50.852;5.672;2024-02-21T13:05:49;9.17;;;3.50;;
13607;SDS011;6875;50.852;5.672;2024-02-21T13:08:16;6.60;;;3.53;;
13607;SDS011;6875;50.852;5.672;2024-02-21T13:10:46;9.80;;;3.73;;
13607;SDS011;6875;50.852;5.672;2024-02-21T13:13:15;7.00;;;3.87;;
13607;SDS011;6875;50.852;5.672;2024-02-21T13:15:42;7.67;;;3.57;;
13607;SDS011;6875;50.852;5.672;2024-02-21T13:18:08;6.30;;;3.70;;
13607;SDS011;6875;50.852;5.672;2024-02-21T13:20:35;9.50;;;3.73;;
13607;SDS011;6875;50.852;5.672;2024-02-21T13:23:02;7.13;;;3.43;;
13607;SDS011;6875;50.852;5.672;2024-02-21T13:25:29;7.97;;;3.73;;
13607;SDS011;6875;50.852;5.672;2024-02-21T13:27:55;7.40;;;3.43;;
13607;SDS011;6875;50.852;5.672;2024-02-21T13:30:26;6.00;;;3.67;;
13607;SDS011;6875;50.852;5.672;2024-02-21T13:32:53;7.93;;;3.73;;
13607;SDS011;6875;50.852;5.672;2024-02-21T13:35:20;7.43;;;2.97;;
13607;SDS011;6875;50.852;5.672;2024-02-21T13:37:47;6.87;;;3.53;;
13607;SDS011;6875;50.852;5.672;2024-02-21T13:40:14;6.63;;;3.20;;
13607;SDS011;6875;50.852;5.672;2024-02-21T13:42:40;8.17;;;3.20;;
13607;SDS011;6875;50.852;5.672;2024-02-21T13:45:08;5.40;;;2.67;;
13607;SDS011;6875;50.852;5.672;2024-02-21T13:47:36;7.40;;;2.77;;
13607;SDS011;6875;50.852;5.672;2024-02-21T13:50:04;6.57;;;2.77;;
13607;SDS011;6875;50.852;5.672;2024-02-21T13:52:34;8.27;;;2.57;;
13607;SDS011;6875;50.852;5.672;2024-02-21T13:55:01;6.53;;;2.97;;
13607;SDS011;6875;50.852;5.672;2024-02-21T13:57:28;9.83;;;3.03;;
13607;SDS011;6875;50.852;5.672;2024-02-21T13:59:54;4.83;;;2.80;;
13607;SDS011;6875;50.852;5.672;2024-02-21T14:02:21;8.07;;;2.97;;
13607;SDS011;6875;50.852;5.672;2024-02-21T14:04:49;8.83;;;2.53;;
13607;SDS011;6875;50.852;5.672;2024-02-21T14:07:16;4.03;;;2.23;;
13607;SDS011;6875;50.852;5.672;2024-02-21T14:09:43;6.23;;;3.10;;
13607;SDS011;6875;50.852;5.672;2024-02-21T14:12:09;6.67;;;2.53;;
13607;SDS011;6875;50.852;5.672;2024-02-21T14:14:36;5.53;;;2.90;;
13607;SDS011;6875;50.852;5.672;2024-02-21T14:17:04;8.07;;;2.53;;
13607;SDS011;6875;50.852;5.672;2024-02-21T14:19:30;6.63;;;2.70;;
13607;SDS011;6875;50.852;5.672;2024-02-21T14:21:58;4.67;;;2.70;;
13607;SDS011;6875;50.852;5.672;2024-02-21T14:24:25;7.03;;;3.03;;
13607;SDS011;6875;50.852;5.672;2024-02-21T14:26:52;5.97;;;2.80;;
13607;SDS011;6875;50.852;5.672;2024-02-21T14:29:19;5.23;;;2.77;;
13607;SDS011;6875;50.852;5.672;2024-02-21T14:31:46;10.73;;;2.97;;
13607;SDS011;6875;50.852;5.672;2024-02-21T14:34:13;3.30;;;2.40;;
13607;SDS011;6875;50.852;5.672;2024-02-21T14:36:39;6.90;;;2.93;;
13607;SDS011;6875;50.852;5.672;2024-02-21T14:39:08;11.03;;;3.40;;
13607;SDS011;6875;50.852;5.672;2024-02-21T14:41:34;5.57;;;2.70;;
13607;SDS011;6875;50.852;5.672;2024-02-21T14:44:01;7.87;;;3.27;;
13607;SDS011;6875;50.852;5.672;2024-02-21T14:46:28;4.93;;;3.10;;
13607;SDS011;6875;50.852;5.672;2024-02-21T14:48:55;8.70;;;3.23;;
13607;SDS011;6875;50.852;5.672;2024-02-21T14:51:21;7.03;;;3.40;;